»·PEaware :: WAT169 KSAN-KLAS

WAT169 :: KSAN-KLAS

FLIGHT INFORMATION

Flight Status: Arrived
Operator: Unknown
More flights by this operator :: More flights under this callsign
Pilot: Marty P. (27464)
Aircraft: BOEING 737-800
(B738)
More flights by this aircraft type
Origin: KSAN San Diego Intl-Lindbergh
United States
Destination: KLAS McCarran Intl
United States
More flights between these airports :: More routes between these airports
Route: +PADRZ2 CHKNN SEBBY YELAH MISEN KEPEC6
File this flight plan on PilotEdge
Remarks:
Altitude:
(Current/Filed)
32,000ft
Speed:
(Current/Filed)
480kts
Departed: 22-Jul-20 08:38 PM
Arrived: 22-Jul-20 09:29 PM
Distance/Time
Traveled:
225nm/0:50
Distance/Time
To Go:
Arrived

Flight Plot

Page will automatically refresh every two minutes.


Map Options




Map Legend


Flown Route
Filed Route
Departure Airport
Arrival Airport
Navaid (VOR, NDB)
Fix

Horizontal Profiles

Position Reports

Time Latitude Longitude Heading Altitude Ground
Speed
22-Jul-20 20:15 32.732372 -117.202816 203 27ft 0kts
22-Jul-20 20:16 32.732372 -117.202816 203 27ft 0kts
22-Jul-20 20:17 32.732372 -117.202816 203 27ft 0kts
22-Jul-20 20:18 32.732372 -117.202816 203 27ft 0kts
22-Jul-20 20:19 32.732372 -117.202816 203 27ft 0kts
22-Jul-20 20:20 32.732372 -117.202816 203 27ft 0kts
22-Jul-20 20:21 32.732372 -117.202816 203 27ft 0kts
22-Jul-20 20:22 32.732372 -117.202816 203 27ft 0kts
22-Jul-20 20:23 32.732372 -117.202816 203 27ft 0kts
22-Jul-20 20:24 32.732372 -117.202816 203 27ft 0kts
22-Jul-20 20:25 32.732847 -117.202761 184 27ft 2kts
22-Jul-20 20:26 32.732926 -117.202521 346 27ft 0kts
22-Jul-20 20:27 32.733637 -117.202736 346 27ft 0kts
22-Jul-20 20:28 32.733637 -117.202736 346 27ft 0kts
22-Jul-20 20:29 32.733637 -117.202736 346 27ft 0kts
22-Jul-20 20:30 32.734141 -117.202689 15 27ft 8kts
22-Jul-20 20:31 32.735075 -117.200199 106 27ft 16kts
22-Jul-20 20:32 32.733712 -117.194568 106 27ft 18kts
22-Jul-20 20:33 32.732419 -117.189233 106 27ft 16kts
22-Jul-20 20:34 32.730989 -117.183351 106 27ft 20kts
22-Jul-20 20:35 32.729640 -117.177789 106 27ft 6kts
22-Jul-20 20:36 32.729575 -117.176481 71 27ft 10kts
22-Jul-20 20:37 32.733658 -117.190112 285 28ft 159kts
22-Jul-20 20:38 32.760847 -117.245337 303 2428ft 235kts
22-Jul-20 20:39 32.797358 -117.314787 303 5919ft 259kts
22-Jul-20 20:40 32.842642 -117.385095 305 10237ft 276kts
22-Jul-20 20:41 32.895292 -117.466865 305 12519ft 355kts
22-Jul-20 20:42 32.956868 -117.562584 304 16001ft 374kts
22-Jul-20 20:43 33.020782 -117.662351 303 19012ft 391kts
22-Jul-20 20:44 33.098093 -117.758299 323 21694ft 415kts
22-Jul-20 20:45 33.213466 -117.776933 8 23904ft 451kts
22-Jul-20 20:46 33.331574 -117.718702 26 25939ft 470kts
22-Jul-20 20:47 33.446623 -117.639864 28 27764ft 483kts
22-Jul-20 20:48 33.558378 -117.560069 24 30342ft 448kts
22-Jul-20 20:49 33.667734 -117.484633 31 29075ft 451kts
22-Jul-20 20:50 33.772672 -117.402973 29 28298ft 449kts
22-Jul-20 20:51 33.877859 -117.323765 29 27592ft 445kts
22-Jul-20 20:52 33.982314 -117.245734 30 26950ft 439kts
22-Jul-20 20:53 34.083071 -117.170352 30 26935ft 414kts
22-Jul-20 20:54 34.178956 -117.098624 30 26777ft 398kts
22-Jul-20 20:55 34.272718 -117.028500 30 26279ft 395kts
22-Jul-20 20:56 34.365751 -116.958882 30 25782ft 392kts
22-Jul-20 20:57 34.458147 -116.889672 30 25284ft 391kts
22-Jul-20 20:58 34.550702 -116.820278 30 24785ft 390kts
22-Jul-20 21:00 34.643083 -116.751021 30 24288ft 393kts
22-Jul-20 21:01 34.736493 -116.680910 30 23793ft 398kts
22-Jul-20 21:02 34.831255 -116.609655 30 23296ft 402kts
22-Jul-20 21:03 34.926564 -116.537880 31 22870ft 402kts
22-Jul-20 21:04 35.020751 -116.466869 31 22862ft 394kts
22-Jul-20 21:05 35.112899 -116.396640 37 22858ft 390kts
22-Jul-20 21:06 35.186428 -116.303219 47 22863ft 385kts
22-Jul-20 21:07 35.260449 -116.208310 47 22862ft 383kts
22-Jul-20 21:08 35.335903 -116.112804 47 21771ft 396kts
22-Jul-20 21:09 35.413566 -116.014821 46 20402ft 404kts
22-Jul-20 21:10 35.494123 -115.912954 47 18179ft 421kts
22-Jul-20 21:11 35.573001 -115.812641 46 15875ft 402kts
22-Jul-20 21:12 35.651466 -115.717486 46 13592ft 395kts
22-Jul-20 21:13 35.726768 -115.624437 45 13028ft 377kts
22-Jul-20 21:14 35.814502 -115.573342 6 13031ft 336kts
22-Jul-20 21:15 35.906575 -115.565123 2 13017ft 333kts
22-Jul-20 21:16 35.984694 -115.514002 60 12999ft 324kts
22-Jul-20 21:17 36.019945 -115.412662 72 12314ft 324kts
22-Jul-20 21:17 36.027654 -115.325829 97 11096ft 307kts
22-Jul-20 21:19 36.019749 -115.206077 97 9072ft 288kts
22-Jul-20 21:19 36.016239 -115.126560 97 7622ft 269kts
22-Jul-20 21:20 36.011631 -115.037807 98 6333ft 255kts
22-Jul-20 21:21 36.005554 -114.953793 100 5050ft 235kts
22-Jul-20 21:22 36.019221 -114.884362 14 5073ft 234kts
22-Jul-20 21:23 36.070308 -114.915351 287 4937ft 185kts
22-Jul-20 21:24 36.072608 -114.976611 267 4591ft 184kts
22-Jul-20 21:25 36.073181 -115.036287 263 3609ft 159kts
22-Jul-20 21:26 36.073607 -115.090980 264 2646ft 160kts
22-Jul-20 21:27 36.073545 -115.142551 266 2192ft 127kts
22-Jul-20 21:28 36.074577 -115.154828 299 2191ft 12kts
22-Jul-20 21:29 36.074733 -115.155167 300 2191ft 0kts
22-Jul-20 21:30 36.076885 -115.157986 328 2191ft 17kts
22-Jul-20 21:31 36.078010 -115.154866 92 2191ft 19kts
22-Jul-20 21:32 36.077823 -115.147904 94 2191ft 19kts

Navigation Log

Ident Type
Flight plan parsing failed, navigation log unavailable